Red Bluff Municipal Airport
KRBL : now visible

Airfield :











YOU CAN JOIN US ON...

 
LOGIN :

Register | Disclaimer

   EN    FR    IT 

 









Legend :    VFR   Marginal VFR   IFR   Intensive IFR   Very Intensive IFR
Visi :
Ceiling :
>= 8 km
>= 3000ft
5 to 8 km
1000 to 3000 ft
1500m to 5 km
500 to 1000 ft
800 to 1500m
200 to 500 ft
< 800m
< 200 ft
Symbols :   Thunderstorms  Fog  Heavy snow  Heavy precipitations  Wind > 20 kt







- Airport Elevation : 352 ft


KRBL - Red Bluff Municipal

CURRENT METAR :
  • 181054Z AUTO 00000KT 7SM -RA BKN060 17/11 A2987 RMK AO2 RAB47 SLP113 P0000 T01720111

EXPIRED METARs :
  • 180954Z AUTO 17008KT 10SM OVC065 18/10 A2989 RMK AO2 SLP117 T01830100
  • 180854Z AUTO 22006KT 10SM BKN070 OVC085 19/09 A2987 RMK AO2 SLP113 T01890094 53001

TAF KRBL
Valid from the 18 at 12:00 until the 19 at 12:00 UTC


181136Z 1812/1912 18010KT P6SM -SHRA OVC050
FM181600 16006KT P6SM VCSH BKN025
FM182100 18009KT P6SM BKN050
TEMPO 1821/1901 -TSRA BKN025CB
FM190100 33005KT P6SM OVC050
No reported NOTAMs for that airfield.



MET'MAP, your aeronautical weather chart ! - Copyright ORBIFLY December 2007 - Disclaimer

ORBIFLY MET'MAP TEAM :

Programming & Development : Alexandra Zaïnal
Concept & Development : Baudouin d'Aumeries
Co-Development & Prog : Marc-Olivier Méhu
Technical & hardware support : Manuel Goepfert

Contact : metmap@orbifly.com




SOURCES & CREDITS :

   NOAA       Earth
Advisory